Available data for LMML from the past hour
LUQA/MALTA
Metar
LMML 210515Z 29005KT 9999 FEW025 15/12 Q1015 NOSIG

05:15 UTC

Wind: 290° 5kt

Visibility: 9999 m

Sky: FEW 2500 ft

Temp: 15 deg C / 59 deg F

Dewpoint: 12 deg C / 53.6 deg F

Pressure: 1015 hPa

TAF
TAF LMML 202300Z 2100/2124 29014KT 9999 FEW024